SAS2647 ESSA-EDDH
Flight info
| Callsign | SAS2647 |
|---|---|
| Flight time | 1h 20m |
| Altitude | 32000 |
| Route | NOSLI N850 ABAMA DCT GIMRU T503 MICOS/N0412F280 N850 BOGMU BOGMU5A |
| Aircraft | A320/M-SDE3FGHIJ1RWXYZ/ALB1 |
Departure
| Time | 2026-05-07 10:06 |
|---|---|
| Airport | Stockholm-Arlanda Airport (ESSA) |
Arrival
| Time | 2026-05-07 11:27 |
|---|---|
| Airport | Hamburg Helmut Schmidt Airport (EDDH) |
| Time | Latitude | Longitude | Altitude | Speed | Heading |
|---|---|---|---|---|---|
| 2026-05-07 09:50 | 59.64758 | 17.92458 | 109 ft | 0 kts | 41° |
| 2026-05-07 09:59 | 59.64749 | 17.92442 | 110 ft | 2 kts | 42° |
| 2026-05-07 09:59 | 59.64737 | 17.92420 | 110 ft | 2 kts | 43° |
| 2026-05-07 09:59 | 59.64725 | 17.92398 | 109 ft | 2 kts | 36° |
| 2026-05-07 10:00 | 59.64710 | 17.92388 | 112 ft | 2 kts | 296° |
| 2026-05-07 10:00 | 59.64706 | 17.92404 | 111 ft | 0 kts | 283° |
| 2026-05-07 10:01 | 59.64707 | 17.92401 | 112 ft | 1 kts | 283° |
| 2026-05-07 10:01 | 59.64714 | 17.92351 | 110 ft | 6 kts | 286° |
| 2026-05-07 10:02 | 59.64731 | 17.92232 | 112 ft | 11 kts | 286° |
| 2026-05-07 10:02 | 59.64784 | 17.92078 | 107 ft | 18 kts | 344° |
| 2026-05-07 10:02 | 59.64922 | 17.92118 | 106 ft | 22 kts | 9° |
| 2026-05-07 10:02 | 59.65089 | 17.92176 | 107 ft | 27 kts | 9° |
| 2026-05-07 10:03 | 59.65283 | 17.92246 | 106 ft | 28 kts | 11° |
| 2026-05-07 10:03 | 59.65483 | 17.92321 | 104 ft | 30 kts | 11° |
| 2026-05-07 10:03 | 59.65679 | 17.92392 | 104 ft | 28 kts | 10° |
| 2026-05-07 10:03 | 59.65877 | 17.92461 | 107 ft | 29 kts | 11° |
| 2026-05-07 10:04 | 59.66072 | 17.92534 | 111 ft | 29 kts | 10° |
| 2026-05-07 10:04 | 59.66266 | 17.92604 | 116 ft | 28 kts | 10° |
| 2026-05-07 10:04 | 59.66452 | 17.92661 | 119 ft | 26 kts | 351° |
| 2026-05-07 10:04 | 59.66614 | 17.92529 | 122 ft | 22 kts | 309° |
| 2026-05-07 10:05 | 59.66548 | 17.92343 | 123 ft | 17 kts | 192° |
| 2026-05-07 10:05 | 59.66525 | 17.92335 | 123 ft | 2 kts | 191° |
| 2026-05-07 10:05 | 59.66388 | 17.92284 | 120 ft | 51 kts | 191° |
| 2026-05-07 10:05 | 59.65826 | 17.92079 | 113 ft | 110 kts | 190° |
| 2026-05-07 10:06 | 59.64922 | 17.91753 | 106 ft | 155 kts | 190° |
| 2026-05-07 10:06 | 59.64166 | 17.91470 | 270 ft | 167 kts | 192° |
| 2026-05-07 10:06 | 59.62660 | 17.90933 | 1096 ft | 166 kts | 188° |
| 2026-05-07 10:06 | 59.61534 | 17.90433 | 1688 ft | 169 kts | 203° |
| 2026-05-07 10:07 | 59.60858 | 17.89594 | 2046 ft | 171 kts | 220° |
| 2026-05-07 10:07 | 59.60148 | 17.87803 | 2703 ft | 162 kts | 243° |
| 2026-05-07 10:07 | 59.59573 | 17.85305 | 3573 ft | 138 kts | 242° |
| 2026-05-07 10:07 | 59.59229 | 17.84262 | 3826 ft | 140 kts | 225° |
| 2026-05-07 10:08 | 59.58428 | 17.82918 | 4169 ft | 157 kts | 217° |
| 2026-05-07 10:08 | 59.57546 | 17.81612 | 4764 ft | 165 kts | 217° |
| 2026-05-07 10:08 | 59.56538 | 17.80132 | 5137 ft | 193 kts | 217° |
| 2026-05-07 10:08 | 59.55400 | 17.78454 | 5616 ft | 216 kts | 217° |
| 2026-05-07 10:09 | 59.54145 | 17.76602 | 6170 ft | 238 kts | 218° |
| 2026-05-07 10:09 | 59.52758 | 17.74542 | 6639 ft | 259 kts | 218° |
| 2026-05-07 10:09 | 59.51292 | 17.72367 | 7288 ft | 267 kts | 219° |
| 2026-05-07 10:09 | 59.49801 | 17.70158 | 8097 ft | 269 kts | 219° |
| 2026-05-07 10:10 | 59.48305 | 17.67941 | 8906 ft | 271 kts | 219° |
| 2026-05-07 10:10 | 59.46796 | 17.65702 | 9740 ft | 273 kts | 220° |
| 2026-05-07 10:10 | 59.45273 | 17.63442 | 10367 ft | 280 kts | 220° |
| 2026-05-07 10:10 | 59.43676 | 17.61063 | 10536 ft | 303 kts | 220° |
| 2026-05-07 10:11 | 59.41948 | 17.58487 | 10812 ft | 319 kts | 220° |
| 2026-05-07 10:11 | 59.40162 | 17.55836 | 11412 ft | 324 kts | 220° |
| 2026-05-07 10:11 | 59.38356 | 17.53169 | 12110 ft | 326 kts | 220° |
| 2026-05-07 10:11 | 59.36538 | 17.50485 | 12799 ft | 328 kts | 220° |
| 2026-05-07 10:12 | 59.34709 | 17.47790 | 13499 ft | 330 kts | 220° |
| 2026-05-07 10:12 | 59.32866 | 17.45073 | 14142 ft | 332 kts | 221° |
| 2026-05-07 10:12 | 59.31013 | 17.42345 | 14727 ft | 335 kts | 220° |
| 2026-05-07 10:12 | 59.29144 | 17.39602 | 15294 ft | 337 kts | 220° |
| 2026-05-07 10:13 | 59.27252 | 17.36826 | 15842 ft | 342 kts | 220° |
| 2026-05-07 10:13 | 59.25346 | 17.34032 | 16441 ft | 344 kts | 220° |
| 2026-05-07 10:13 | 59.23422 | 17.31218 | 17027 ft | 347 kts | 220° |
| 2026-05-07 10:13 | 59.21482 | 17.28389 | 17609 ft | 350 kts | 220° |
| 2026-05-07 10:14 | 59.19523 | 17.25530 | 18204 ft | 352 kts | 220° |
| 2026-05-07 10:14 | 59.17555 | 17.22658 | 18734 ft | 355 kts | 220° |
| 2026-05-07 10:14 | 59.15570 | 17.19768 | 19299 ft | 357 kts | 220° |
| 2026-05-07 10:14 | 59.13578 | 17.16881 | 19868 ft | 358 kts | 220° |
| 2026-05-07 10:15 | 59.11573 | 17.13978 | 20438 ft | 360 kts | 220° |
| 2026-05-07 10:15 | 59.09562 | 17.11068 | 21003 ft | 361 kts | 220° |
| 2026-05-07 10:15 | 59.07543 | 17.08148 | 21544 ft | 363 kts | 220° |
| 2026-05-07 10:15 | 59.05513 | 17.05219 | 22077 ft | 364 kts | 220° |
| 2026-05-07 10:16 | 59.03472 | 17.02275 | 22516 ft | 367 kts | 220° |
| 2026-05-07 10:16 | 59.01415 | 16.99308 | 22983 ft | 370 kts | 220° |
| 2026-05-07 10:16 | 58.99342 | 16.96328 | 23463 ft | 372 kts | 220° |
| 2026-05-07 10:16 | 58.97257 | 16.93338 | 23896 ft | 374 kts | 220° |
| 2026-05-07 10:17 | 58.95160 | 16.90339 | 24289 ft | 375 kts | 220° |
| 2026-05-07 10:17 | 58.93055 | 16.87336 | 24662 ft | 377 kts | 220° |
| 2026-05-07 10:17 | 58.90937 | 16.84320 | 25032 ft | 379 kts | 220° |
| 2026-05-07 10:17 | 58.88808 | 16.81287 | 25404 ft | 381 kts | 220° |
| 2026-05-07 10:18 | 58.86673 | 16.78248 | 25762 ft | 382 kts | 220° |
| 2026-05-07 10:18 | 58.84523 | 16.75190 | 26125 ft | 384 kts | 220° |
| 2026-05-07 10:18 | 58.82369 | 16.72131 | 26475 ft | 386 kts | 220° |
| 2026-05-07 10:18 | 58.80201 | 16.69056 | 26784 ft | 388 kts | 220° |
| 2026-05-07 10:19 | 58.78014 | 16.65967 | 27086 ft | 391 kts | 220° |
| 2026-05-07 10:19 | 58.75813 | 16.62863 | 27396 ft | 393 kts | 220° |
| 2026-05-07 10:19 | 58.73600 | 16.59745 | 27731 ft | 395 kts | 220° |
| 2026-05-07 10:19 | 58.71377 | 16.56615 | 28058 ft | 398 kts | 220° |
| 2026-05-07 10:20 | 58.69140 | 16.53468 | 28344 ft | 401 kts | 220° |
| 2026-05-07 10:20 | 58.66881 | 16.50296 | 28655 ft | 403 kts | 220° |
| 2026-05-07 10:20 | 58.64616 | 16.47119 | 29002 ft | 404 kts | 220° |
| 2026-05-07 10:20 | 58.62347 | 16.43944 | 29453 ft | 403 kts | 220° |
| 2026-05-07 10:21 | 58.60081 | 16.40786 | 29920 ft | 402 kts | 220° |
| 2026-05-07 10:21 | 58.57823 | 16.37645 | 30332 ft | 401 kts | 220° |
| 2026-05-07 10:21 | 58.55570 | 16.34516 | 30674 ft | 400 kts | 220° |
| 2026-05-07 10:21 | 58.53317 | 16.31390 | 30996 ft | 401 kts | 220° |
| 2026-05-07 10:22 | 58.51059 | 16.28252 | 31343 ft | 401 kts | 220° |
| 2026-05-07 10:22 | 58.48800 | 16.25114 | 31704 ft | 401 kts | 220° |
| 2026-05-07 10:22 | 58.46542 | 16.21984 | 31999 ft | 402 kts | 220° |
| 2026-05-07 10:23 | 58.41994 | 16.15703 | 32056 ft | 405 kts | 220° |
| 2026-05-07 10:23 | 58.37424 | 16.09425 | 32056 ft | 405 kts | 219° |
| 2026-05-07 10:24 | 58.32845 | 16.03162 | 32051 ft | 405 kts | 219° |
| 2026-05-07 10:24 | 58.28286 | 15.96948 | 32050 ft | 407 kts | 219° |
| 2026-05-07 10:25 | 58.23688 | 15.90684 | 32052 ft | 407 kts | 219° |
| 2026-05-07 10:25 | 58.19083 | 15.84427 | 32049 ft | 407 kts | 219° |
| 2026-05-07 10:26 | 58.14436 | 15.78148 | 32060 ft | 408 kts | 219° |
| 2026-05-07 10:26 | 58.09847 | 15.71959 | 32055 ft | 408 kts | 219° |
| 2026-05-07 10:27 | 58.05225 | 15.65748 | 32023 ft | 408 kts | 219° |
| 2026-05-07 10:27 | 58.00593 | 15.59555 | 32034 ft | 408 kts | 219° |
| 2026-05-07 10:28 | 57.95972 | 15.53325 | 32042 ft | 408 kts | 219° |
| 2026-05-07 10:28 | 57.91409 | 15.46977 | 32048 ft | 408 kts | 220° |
| 2026-05-07 10:29 | 57.86843 | 15.40611 | 32054 ft | 408 kts | 220° |
| 2026-05-07 10:29 | 57.82265 | 15.34293 | 32057 ft | 409 kts | 220° |
| 2026-05-07 10:30 | 57.75337 | 15.24827 | 32040 ft | 412 kts | 220° |
| 2026-05-07 10:30 | 57.70704 | 15.18510 | 32047 ft | 412 kts | 220° |
| 2026-05-07 10:31 | 57.66068 | 15.12186 | 32049 ft | 413 kts | 220° |
| 2026-05-07 10:31 | 57.61422 | 15.05878 | 32052 ft | 413 kts | 220° |
| 2026-05-07 10:32 | 57.56767 | 14.99588 | 32025 ft | 414 kts | 219° |
| 2026-05-07 10:32 | 57.52098 | 14.93308 | 32033 ft | 414 kts | 219° |
| 2026-05-07 10:33 | 57.47417 | 14.87037 | 32041 ft | 415 kts | 219° |
| 2026-05-07 10:33 | 57.42743 | 14.80767 | 32049 ft | 415 kts | 219° |
| 2026-05-07 10:34 | 57.38056 | 14.74505 | 32052 ft | 415 kts | 219° |
| 2026-05-07 10:34 | 57.33362 | 14.68270 | 32031 ft | 415 kts | 219° |
| 2026-05-07 10:35 | 57.28660 | 14.62046 | 32043 ft | 416 kts | 219° |
| 2026-05-07 10:35 | 57.23958 | 14.55822 | 32051 ft | 416 kts | 219° |
| 2026-05-07 10:36 | 57.19246 | 14.49616 | 32059 ft | 416 kts | 219° |
| 2026-05-07 10:36 | 57.14528 | 14.43425 | 32063 ft | 416 kts | 219° |
| 2026-05-07 10:37 | 57.09811 | 14.37245 | 32047 ft | 416 kts | 218° |
| 2026-05-07 10:37 | 57.05091 | 14.31075 | 32053 ft | 416 kts | 218° |
| 2026-05-07 10:38 | 57.00359 | 14.24920 | 32058 ft | 417 kts | 218° |
| 2026-05-07 10:38 | 56.95608 | 14.18771 | 32052 ft | 419 kts | 218° |
| 2026-05-07 10:39 | 56.90832 | 14.12611 | 32052 ft | 420 kts | 218° |
| 2026-05-07 10:39 | 56.86046 | 14.06452 | 32063 ft | 421 kts | 218° |
| 2026-05-07 10:40 | 56.81284 | 14.00332 | 32047 ft | 422 kts | 218° |
| 2026-05-07 10:40 | 56.76486 | 13.94177 | 32057 ft | 422 kts | 218° |
| 2026-05-07 10:41 | 56.71672 | 13.88031 | 32066 ft | 422 kts | 218° |
| 2026-05-07 10:41 | 56.66859 | 13.81908 | 32074 ft | 422 kts | 218° |
| 2026-05-07 10:42 | 56.62034 | 13.75793 | 32081 ft | 423 kts | 217° |
| 2026-05-07 10:42 | 56.57208 | 13.69711 | 32079 ft | 422 kts | 217° |
| 2026-05-07 10:43 | 56.52389 | 13.63646 | 32084 ft | 422 kts | 217° |
| 2026-05-07 10:43 | 56.47574 | 13.57591 | 32089 ft | 421 kts | 217° |
| 2026-05-07 10:44 | 56.42756 | 13.51554 | 32089 ft | 421 kts | 217° |
| 2026-05-07 10:44 | 56.37939 | 13.45543 | 32079 ft | 421 kts | 217° |
| 2026-05-07 10:45 | 56.33139 | 13.39565 | 32082 ft | 418 kts | 217° |
| 2026-05-07 10:45 | 56.28344 | 13.33622 | 32072 ft | 418 kts | 217° |
| 2026-05-07 10:46 | 56.23553 | 13.27688 | 32077 ft | 418 kts | 217° |
| 2026-05-07 10:46 | 56.18750 | 13.21768 | 32071 ft | 420 kts | 217° |
| 2026-05-07 10:47 | 56.13917 | 13.15827 | 32045 ft | 423 kts | 217° |
| 2026-05-07 10:47 | 56.09058 | 13.09874 | 32067 ft | 423 kts | 216° |
| 2026-05-07 10:48 | 56.04183 | 13.03932 | 32094 ft | 424 kts | 216° |
| 2026-05-07 10:48 | 55.99308 | 12.97997 | 32102 ft | 424 kts | 216° |
| 2026-05-07 10:49 | 55.94427 | 12.92076 | 32109 ft | 424 kts | 216° |
| 2026-05-07 10:49 | 55.89542 | 12.86170 | 32106 ft | 424 kts | 216° |
| 2026-05-07 10:50 | 55.84690 | 12.80325 | 32123 ft | 423 kts | 216° |
| 2026-05-07 10:50 | 55.79819 | 12.74463 | 32133 ft | 422 kts | 216° |
| 2026-05-07 10:51 | 55.74954 | 12.68628 | 32123 ft | 422 kts | 216° |
| 2026-05-07 10:51 | 55.70083 | 12.62803 | 32135 ft | 422 kts | 216° |
| 2026-05-07 10:52 | 55.65216 | 12.57006 | 32096 ft | 422 kts | 216° |
| 2026-05-07 10:52 | 55.60334 | 12.51204 | 32086 ft | 424 kts | 216° |
| 2026-05-07 10:53 | 55.56257 | 12.46375 | 32084 ft | 425 kts | 216° |
| 2026-05-07 10:53 | 55.51337 | 12.40567 | 32085 ft | 426 kts | 215° |
| 2026-05-07 10:54 | 55.46405 | 12.34762 | 32096 ft | 426 kts | 215° |
| 2026-05-07 10:54 | 55.41467 | 12.28969 | 32108 ft | 427 kts | 215° |
| 2026-05-07 10:55 | 55.36510 | 12.23182 | 32085 ft | 429 kts | 215° |
| 2026-05-07 10:55 | 55.31519 | 12.17357 | 32073 ft | 432 kts | 215° |
| 2026-05-07 10:56 | 55.26498 | 12.11506 | 32088 ft | 434 kts | 215° |
| 2026-05-07 10:56 | 55.21455 | 12.05649 | 32094 ft | 435 kts | 215° |
| 2026-05-07 10:57 | 55.16405 | 11.99805 | 32104 ft | 435 kts | 215° |
| 2026-05-07 10:57 | 55.11357 | 11.93991 | 32119 ft | 434 kts | 214° |
| 2026-05-07 10:58 | 55.06317 | 11.88212 | 32119 ft | 433 kts | 214° |
| 2026-05-07 10:58 | 55.01286 | 11.82467 | 32119 ft | 432 kts | 214° |
| 2026-05-07 10:59 | 54.96292 | 11.76759 | 32118 ft | 432 kts | 214° |
| 2026-05-07 10:59 | 54.91273 | 11.71029 | 32122 ft | 431 kts | 214° |
| 2026-05-07 11:00 | 54.86263 | 11.65348 | 32127 ft | 429 kts | 214° |
| 2026-05-07 11:00 | 54.83761 | 11.62520 | 31741 ft | 429 kts | 214° |
| 2026-05-07 11:00 | 54.81245 | 11.59674 | 30952 ft | 432 kts | 214° |
| 2026-05-07 11:01 | 54.78741 | 11.56849 | 30477 ft | 427 kts | 214° |
| 2026-05-07 11:01 | 54.76263 | 11.54059 | 29942 ft | 424 kts | 214° |
| 2026-05-07 11:01 | 54.73807 | 11.51297 | 29438 ft | 418 kts | 214° |
| 2026-05-07 11:01 | 54.71385 | 11.48572 | 28943 ft | 412 kts | 214° |
| 2026-05-07 11:02 | 54.68997 | 11.45887 | 28481 ft | 407 kts | 214° |
| 2026-05-07 11:02 | 54.66637 | 11.43237 | 28021 ft | 402 kts | 214° |
| 2026-05-07 11:02 | 54.64304 | 11.40620 | 27585 ft | 397 kts | 214° |
| 2026-05-07 11:02 | 54.62055 | 11.37896 | 27118 ft | 392 kts | 222° |
| 2026-05-07 11:03 | 54.60070 | 11.34719 | 26687 ft | 388 kts | 225° |
| 2026-05-07 11:03 | 54.58129 | 11.31499 | 26250 ft | 386 kts | 225° |
| 2026-05-07 11:03 | 54.56207 | 11.28302 | 25807 ft | 384 kts | 225° |
| 2026-05-07 11:03 | 54.54290 | 11.25115 | 25358 ft | 382 kts | 225° |
| 2026-05-07 11:04 | 54.52379 | 11.21938 | 24918 ft | 381 kts | 225° |
| 2026-05-07 11:04 | 54.50474 | 11.18773 | 24460 ft | 381 kts | 225° |
| 2026-05-07 11:04 | 54.48570 | 11.15610 | 23998 ft | 380 kts | 225° |
| 2026-05-07 11:04 | 54.46678 | 11.12449 | 23531 ft | 379 kts | 225° |
| 2026-05-07 11:05 | 54.44787 | 11.09290 | 22998 ft | 378 kts | 225° |
| 2026-05-07 11:05 | 54.42901 | 11.06148 | 22473 ft | 378 kts | 225° |
| 2026-05-07 11:05 | 54.41015 | 11.03008 | 21960 ft | 377 kts | 225° |
| 2026-05-07 11:05 | 54.39137 | 10.99888 | 21461 ft | 375 kts | 225° |
| 2026-05-07 11:06 | 54.37263 | 10.96780 | 20969 ft | 374 kts | 225° |
| 2026-05-07 11:06 | 54.35393 | 10.93685 | 20481 ft | 373 kts | 225° |
| 2026-05-07 11:06 | 54.33530 | 10.90606 | 20008 ft | 371 kts | 225° |
| 2026-05-07 11:06 | 54.31674 | 10.87546 | 19535 ft | 369 kts | 225° |
| 2026-05-07 11:07 | 54.29824 | 10.84504 | 19067 ft | 368 kts | 225° |
| 2026-05-07 11:07 | 54.27986 | 10.81485 | 18618 ft | 365 kts | 225° |
| 2026-05-07 11:07 | 54.26155 | 10.78492 | 18120 ft | 363 kts | 225° |
| 2026-05-07 11:07 | 54.24329 | 10.75533 | 17601 ft | 360 kts | 224° |
| 2026-05-07 11:08 | 54.22522 | 10.72597 | 17096 ft | 357 kts | 224° |
| 2026-05-07 11:08 | 54.20733 | 10.69677 | 16597 ft | 355 kts | 225° |
| 2026-05-07 11:08 | 54.18951 | 10.66781 | 16107 ft | 352 kts | 225° |
| 2026-05-07 11:08 | 54.17175 | 10.63915 | 15616 ft | 350 kts | 225° |
| 2026-05-07 11:09 | 54.15419 | 10.61062 | 15139 ft | 348 kts | 224° |
| 2026-05-07 11:09 | 54.13680 | 10.58214 | 14676 ft | 346 kts | 224° |
| 2026-05-07 11:09 | 54.11946 | 10.55381 | 14208 ft | 344 kts | 225° |
| 2026-05-07 11:09 | 54.10221 | 10.52569 | 13725 ft | 342 kts | 225° |
| 2026-05-07 11:10 | 54.08506 | 10.49768 | 13212 ft | 340 kts | 224° |
| 2026-05-07 11:10 | 54.06805 | 10.46981 | 12708 ft | 339 kts | 224° |
| 2026-05-07 11:10 | 54.05111 | 10.44199 | 12208 ft | 337 kts | 224° |
| 2026-05-07 11:10 | 54.03426 | 10.41433 | 11719 ft | 336 kts | 224° |
| 2026-05-07 11:11 | 54.01749 | 10.38676 | 11240 ft | 335 kts | 224° |
| 2026-05-07 11:11 | 54.00101 | 10.35958 | 11055 ft | 324 kts | 224° |
| 2026-05-07 11:11 | 53.98516 | 10.33339 | 11068 ft | 315 kts | 224° |
| 2026-05-07 11:11 | 53.96943 | 10.30748 | 11070 ft | 315 kts | 224° |
| 2026-05-07 11:12 | 53.95372 | 10.28164 | 11070 ft | 315 kts | 224° |
| 2026-05-07 11:12 | 53.93797 | 10.25574 | 11071 ft | 315 kts | 224° |
| 2026-05-07 11:12 | 53.92226 | 10.22988 | 11072 ft | 314 kts | 224° |
| 2026-05-07 11:12 | 53.90658 | 10.20405 | 11043 ft | 315 kts | 224° |
| 2026-05-07 11:13 | 53.89085 | 10.17819 | 10807 ft | 314 kts | 224° |
| 2026-05-07 11:13 | 53.87522 | 10.15251 | 10537 ft | 313 kts | 224° |
| 2026-05-07 11:13 | 53.85979 | 10.12713 | 10231 ft | 310 kts | 224° |
| 2026-05-07 11:13 | 53.84443 | 10.10181 | 9906 ft | 305 kts | 224° |
| 2026-05-07 11:14 | 53.82961 | 10.07730 | 9544 ft | 294 kts | 224° |
| 2026-05-07 11:14 | 53.81507 | 10.05315 | 9204 ft | 294 kts | 224° |
| 2026-05-07 11:14 | 53.80063 | 10.02884 | 8859 ft | 293 kts | 225° |
| 2026-05-07 11:14 | 53.78625 | 10.00449 | 8516 ft | 292 kts | 224° |
| 2026-05-07 11:15 | 53.77192 | 9.98010 | 8180 ft | 292 kts | 224° |
| 2026-05-07 11:15 | 53.75786 | 9.95608 | 8062 ft | 281 kts | 224° |
| 2026-05-07 11:15 | 53.74464 | 9.93348 | 8080 ft | 267 kts | 225° |
| 2026-05-07 11:15 | 53.73165 | 9.91127 | 8080 ft | 260 kts | 224° |
| 2026-05-07 11:16 | 53.71897 | 9.88941 | 8085 ft | 260 kts | 224° |
| 2026-05-07 11:16 | 53.70653 | 9.86808 | 8081 ft | 258 kts | 224° |
| 2026-05-07 11:16 | 53.69391 | 9.84645 | 8082 ft | 258 kts | 224° |
| 2026-05-07 11:16 | 53.68133 | 9.82506 | 8082 ft | 257 kts | 224° |
| 2026-05-07 11:17 | 53.66876 | 9.80352 | 8083 ft | 259 kts | 225° |
| 2026-05-07 11:17 | 53.65620 | 9.78195 | 8080 ft | 259 kts | 226° |
| 2026-05-07 11:17 | 53.64439 | 9.75912 | 7893 ft | 258 kts | 229° |
| 2026-05-07 11:17 | 53.63290 | 9.73592 | 7620 ft | 256 kts | 229° |
| 2026-05-07 11:18 | 53.62149 | 9.71279 | 7288 ft | 259 kts | 229° |
| 2026-05-07 11:18 | 53.60995 | 9.68932 | 6915 ft | 261 kts | 229° |
| 2026-05-07 11:18 | 53.59829 | 9.66556 | 6555 ft | 264 kts | 229° |
| 2026-05-07 11:18 | 53.58655 | 9.64169 | 6193 ft | 265 kts | 229° |
| 2026-05-07 11:19 | 53.57486 | 9.61781 | 5920 ft | 262 kts | 229° |
| 2026-05-07 11:19 | 53.56342 | 9.59455 | 5772 ft | 254 kts | 225° |
| 2026-05-07 11:19 | 53.54930 | 9.57834 | 5547 ft | 242 kts | 193° |
| 2026-05-07 11:19 | 53.53331 | 9.57697 | 5417 ft | 223 kts | 160° |
| 2026-05-07 11:20 | 53.52023 | 9.58868 | 5198 ft | 212 kts | 138° |
| 2026-05-07 11:20 | 53.50893 | 9.60449 | 4778 ft | 210 kts | 135° |
| 2026-05-07 11:20 | 53.49806 | 9.62064 | 4361 ft | 208 kts | 134° |
| 2026-05-07 11:20 | 53.48771 | 9.63721 | 3942 ft | 203 kts | 123° |
| 2026-05-07 11:21 | 53.48319 | 9.65856 | 3530 ft | 194 kts | 91° |
| 2026-05-07 11:21 | 53.48374 | 9.68100 | 3125 ft | 191 kts | 78° |
| 2026-05-07 11:21 | 53.48843 | 9.70172 | 2767 ft | 191 kts | 59° |
| 2026-05-07 11:21 | 53.49670 | 9.71949 | 2374 ft | 194 kts | 51° |
| 2026-05-07 11:22 | 53.50535 | 9.73664 | 2281 ft | 189 kts | 51° |
| 2026-05-07 11:22 | 53.51353 | 9.75274 | 2241 ft | 174 kts | 51° |
| 2026-05-07 11:22 | 53.52125 | 9.76792 | 2258 ft | 169 kts | 51° |
| 2026-05-07 11:22 | 53.52885 | 9.78295 | 2328 ft | 165 kts | 51° |
| 2026-05-07 11:23 | 53.53625 | 9.79752 | 2340 ft | 164 kts | 53° |
| 2026-05-07 11:23 | 53.54342 | 9.81251 | 2339 ft | 166 kts | 52° |
| 2026-05-07 11:23 | 53.55026 | 9.82653 | 2187 ft | 147 kts | 52° |
| 2026-05-07 11:23 | 53.55651 | 9.83919 | 2033 ft | 138 kts | 52° |
| 2026-05-07 11:24 | 53.56264 | 9.85156 | 1856 ft | 136 kts | 51° |
| 2026-05-07 11:24 | 53.56864 | 9.86366 | 1672 ft | 132 kts | 52° |
| 2026-05-07 11:24 | 53.57459 | 9.87565 | 1490 ft | 134 kts | 51° |
| 2026-05-07 11:24 | 53.58061 | 9.88779 | 1302 ft | 136 kts | 52° |
| 2026-05-07 11:25 | 53.58667 | 9.89998 | 1124 ft | 134 kts | 52° |
| 2026-05-07 11:25 | 53.59262 | 9.91199 | 939 ft | 132 kts | 51° |
| 2026-05-07 11:25 | 53.59846 | 9.92377 | 741 ft | 131 kts | 53° |
| 2026-05-07 11:25 | 53.60431 | 9.93556 | 542 ft | 130 kts | 50° |
| 2026-05-07 11:26 | 53.61018 | 9.94718 | 385 ft | 132 kts | 51° |
| 2026-05-07 11:26 | 53.61602 | 9.95907 | 233 ft | 130 kts | 51° |
| 2026-05-07 11:26 | 53.62188 | 9.97098 | 63 ft | 132 kts | 52° |
| 2026-05-07 11:26 | 53.62701 | 9.98151 | 42 ft | 95 kts | 51° |
| 2026-05-07 11:27 | 53.63014 | 9.98787 | 45 ft | 46 kts | 50° |
| 2026-05-07 11:27 | 53.63089 | 9.99156 | 46 ft | 16 kts | 108° |
| 2026-05-07 11:27 | 53.63087 | 9.99194 | 47 ft | 0 kts | 91° |
| 2026-05-07 11:29 | 53.63086 | 9.99218 | 47 ft | 6 kts | 93° |
| 2026-05-07 11:29 | 53.63088 | 9.99350 | 47 ft | 17 kts | 78° |
| 2026-05-07 11:29 | 53.63169 | 9.99567 | 46 ft | 26 kts | 50° |
| 2026-05-07 11:30 | 53.63221 | 9.99670 | 48 ft | 0 kts | 50° |
| 2026-05-07 11:30 | 53.63222 | 9.99678 | 48 ft | 3 kts | 70° |
| 2026-05-07 11:31 | 53.63258 | 9.99737 | 47 ft | 13 kts | 40° |
| 2026-05-07 11:31 | 53.63262 | 9.99853 | 48 ft | 10 kts | 148° |
| 2026-05-07 11:31 | 53.63235 | 9.99890 | 48 ft | 0 kts | 140° |